sensor_id;sensor_type;location;lat;lon;timestamp;P1;durP1;ratioP1;P2;durP2;ratioP2
19495;SDS011;9888;48.606;9.630;2022-12-07T00:01:37;19.27;;;9.10;;
19495;SDS011;9888;48.606;9.630;2022-12-07T00:04:07;20.03;;;9.40;;
19495;SDS011;9888;48.606;9.630;2022-12-07T00:06:37;21.47;;;9.00;;
19495;SDS011;9888;48.606;9.630;2022-12-07T00:09:14;17.53;;;8.80;;
19495;SDS011;9888;48.606;9.630;2022-12-07T00:11:42;19.90;;;9.33;;
19495;SDS011;9888;48.606;9.630;2022-12-07T00:14:12;19.07;;;9.17;;
19495;SDS011;9888;48.606;9.630;2022-12-07T00:16:41;15.83;;;8.60;;
19495;SDS011;9888;48.606;9.630;2022-12-07T00:19:09;20.63;;;9.30;;
19495;SDS011;9888;48.606;9.630;2022-12-07T00:21:37;20.60;;;9.63;;
19495;SDS011;9888;48.606;9.630;2022-12-07T00:24:05;21.63;;;10.43;;
19495;SDS011;9888;48.606;9.630;2022-12-07T00:26:34;23.30;;;10.40;;
19495;SDS011;9888;48.606;9.630;2022-12-07T00:29:04;19.57;;;9.53;;
19495;SDS011;9888;48.606;9.630;2022-12-07T00:31:33;22.23;;;10.53;;
19495;SDS011;9888;48.606;9.630;2022-12-07T00:34:04;20.90;;;9.80;;
19495;SDS011;9888;48.606;9.630;2022-12-07T00:36:32;22.10;;;9.73;;
19495;SDS011;9888;48.606;9.630;2022-12-07T00:39:01;26.13;;;10.90;;
19495;SDS011;9888;48.606;9.630;2022-12-07T00:41:28;23.47;;;11.67;;
19495;SDS011;9888;48.606;9.630;2022-12-07T00:43:56;25.97;;;10.73;;
19495;SDS011;9888;48.606;9.630;2022-12-07T00:46:23;19.43;;;9.73;;
19495;SDS011;9888;48.606;9.630;2022-12-07T00:48:51;20.70;;;10.37;;
19495;SDS011;9888;48.606;9.630;2022-12-07T00:51:21;22.30;;;10.17;;
19495;SDS011;9888;48.606;9.630;2022-12-07T00:53:51;17.67;;;9.10;;
19495;SDS011;9888;48.606;9.630;2022-12-07T00:56:22;19.50;;;9.43;;
19495;SDS011;9888;48.606;9.630;2022-12-07T00:58:56;20.87;;;9.90;;
19495;SDS011;9888;48.606;9.630;2022-12-07T01:01:29;20.40;;;9.57;;
19495;SDS011;9888;48.606;9.630;2022-12-07T01:03:58;19.97;;;9.80;;
19495;SDS011;9888;48.606;9.630;2022-12-07T01:06:28;16.50;;;8.90;;
19495;SDS011;9888;48.606;9.630;2022-12-07T01:08:56;18.17;;;7.87;;
19495;SDS011;9888;48.606;9.630;2022-12-07T01:11:24;18.53;;;8.47;;
19495;SDS011;9888;48.606;9.630;2022-12-07T01:13:53;20.57;;;9.63;;
19495;SDS011;9888;48.606;9.630;2022-12-07T01:16:23;20.20;;;9.53;;
19495;SDS011;9888;48.606;9.630;2022-12-07T01:18:52;19.67;;;8.60;;
19495;SDS011;9888;48.606;9.630;2022-12-07T01:21:21;16.73;;;7.43;;
19495;SDS011;9888;48.606;9.630;2022-12-07T01:23:50;22.70;;;9.50;;
19495;SDS011;9888;48.606;9.630;2022-12-07T01:26:18;19.43;;;9.10;;
19495;SDS011;9888;48.606;9.630;2022-12-07T01:28:47;19.80;;;9.33;;
19495;SDS011;9888;48.606;9.630;2022-12-07T01:31:18;19.43;;;8.87;;
19495;SDS011;9888;48.606;9.630;2022-12-07T01:33:51;22.50;;;9.80;;
19495;SDS011;9888;48.606;9.630;2022-12-07T01:36:24;19.60;;;9.60;;
19495;SDS011;9888;48.606;9.630;2022-12-07T01:38:59;20.80;;;9.37;;
19495;SDS011;9888;48.606;9.630;2022-12-07T01:41:30;18.23;;;8.90;;
19495;SDS011;9888;48.606;9.630;2022-12-07T01:46:52;19.57;;;9.80;;
19495;SDS011;9888;48.606;9.630;2022-12-07T01:49:43;19.10;;;9.30;;
19495;SDS011;9888;48.606;9.630;2022-12-07T01:52:13;19.47;;;9.90;;
19495;SDS011;9888;48.606;9.630;2022-12-07T01:54:46;21.83;;;9.83;;
19495;SDS011;9888;48.606;9.630;2022-12-07T01:57:16;19.17;;;9.77;;
19495;SDS011;9888;48.606;9.630;2022-12-07T01:59:44;20.17;;;8.93;;
19495;SDS011;9888;48.606;9.630;2022-12-07T02:05:24;17.47;;;8.40;;
19495;SDS011;9888;48.606;9.630;2022-12-07T02:07:53;16.70;;;7.47;;
19495;SDS011;9888;48.606;9.630;2022-12-07T02:10:26;17.60;;;8.40;;
19495;SDS011;9888;48.606;9.630;2022-12-07T02:12:56;20.37;;;8.97;;
19495;SDS011;9888;48.606;9.630;2022-12-07T02:15:41;21.33;;;8.60;;
19495;SDS011;9888;48.606;9.630;2022-12-07T02:32:07;18.30;;;8.20;;
19495;SDS011;9888;48.606;9.630;2022-12-07T02:35:06;23.73;;;9.13;;
19495;SDS011;9888;48.606;9.630;2022-12-07T02:40:43;23.63;;;9.90;;
19495;SDS011;9888;48.606;9.630;2022-12-07T02:43:26;20.30;;;9.10;;
19495;SDS011;9888;48.606;9.630;2022-12-07T02:46:05;19.73;;;9.60;;
19495;SDS011;9888;48.606;9.630;2022-12-07T02:48:37;19.63;;;9.40;;
19495;SDS011;9888;48.606;9.630;2022-12-07T02:51:05;24.43;;;10.80;;
19495;SDS011;9888;48.606;9.630;2022-12-07T02:53:37;21.33;;;10.00;;
19495;SDS011;9888;48.606;9.630;2022-12-07T02:58:58;17.97;;;8.60;;
19495;SDS011;9888;48.606;9.630;2022-12-07T03:01:56;20.50;;;8.53;;
19495;SDS011;9888;48.606;9.630;2022-12-07T03:13:35;18.57;;;7.83;;
19495;SDS011;9888;48.606;9.630;2022-12-07T03:16:17;16.10;;;7.33;;
19495;SDS011;9888;48.606;9.630;2022-12-07T03:18:52;18.00;;;8.47;;
19495;SDS011;9888;48.606;9.630;2022-12-07T03:21:33;20.03;;;7.93;;
19495;SDS011;9888;48.606;9.630;2022-12-07T03:24:19;19.17;;;8.73;;
19495;SDS011;9888;48.606;9.630;2022-12-07T03:26:53;19.53;;;8.50;;
19495;SDS011;9888;48.606;9.630;2022-12-07T03:29:36;18.80;;;8.20;;
19495;SDS011;9888;48.606;9.630;2022-12-07T03:32:33;19.70;;;9.10;;
19495;SDS011;9888;48.606;9.630;2022-12-07T03:35:01;22.57;;;9.33;;
19495;SDS011;9888;48.606;9.630;2022-12-07T03:37:35;21.60;;;8.57;;
19495;SDS011;9888;48.606;9.630;2022-12-07T03:42:54;20.13;;;9.00;;
19495;SDS011;9888;48.606;9.630;2022-12-07T03:45:33;17.47;;;8.13;;
19495;SDS011;9888;48.606;9.630;2022-12-07T03:48:24;17.13;;;7.37;;
19495;SDS011;9888;48.606;9.630;2022-12-07T03:51:08;20.00;;;7.47;;
19495;SDS011;9888;48.606;9.630;2022-12-07T03:56:52;17.80;;;7.83;;
19495;SDS011;9888;48.606;9.630;2022-12-07T03:59:21;18.30;;;7.80;;
19495;SDS011;9888;48.606;9.630;2022-12-07T04:01:57;15.60;;;7.97;;
19495;SDS011;9888;48.606;9.630;2022-12-07T04:04:28;18.27;;;7.77;;
19495;SDS011;9888;48.606;9.630;2022-12-07T04:06:56;16.70;;;7.30;;
19495;SDS011;9888;48.606;9.630;2022-12-07T04:09:23;15.23;;;7.60;;
19495;SDS011;9888;48.606;9.630;2022-12-07T04:11:51;18.40;;;8.13;;
19495;SDS011;9888;48.606;9.630;2022-12-07T04:14:22;18.37;;;8.50;;
19495;SDS011;9888;48.606;9.630;2022-12-07T04:16:56;16.73;;;7.13;;
19495;SDS011;9888;48.606;9.630;2022-12-07T04:19:28;18.87;;;8.07;;
19495;SDS011;9888;48.606;9.630;2022-12-07T04:22:00;20.63;;;8.43;;
19495;SDS011;9888;48.606;9.630;2022-12-07T04:24:28;15.40;;;8.07;;
19495;SDS011;9888;48.606;9.630;2022-12-07T04:26:55;22.30;;;9.60;;
19495;SDS011;9888;48.606;9.630;2022-12-07T04:29:22;16.60;;;8.33;;
19495;SDS011;9888;48.606;9.630;2022-12-07T04:31:51;19.90;;;9.07;;
19495;SDS011;9888;48.606;9.630;2022-12-07T04:34:18;20.67;;;9.03;;
19495;SDS011;9888;48.606;9.630;2022-12-07T04:36:47;17.40;;;8.50;;
19495;SDS011;9888;48.606;9.630;2022-12-07T04:39:21;18.50;;;8.40;;
19495;SDS011;9888;48.606;9.630;2022-12-07T04:41:50;20.63;;;9.57;;
19495;SDS011;9888;48.606;9.630;2022-12-07T04:44:17;19.10;;;8.73;;
19495;SDS011;9888;48.606;9.630;2022-12-07T04:46:46;19.07;;;8.47;;
19495;SDS011;9888;48.606;9.630;2022-12-07T04:49:14;17.83;;;7.83;;
19495;SDS011;9888;48.606;9.630;2022-12-07T04:51:43;16.27;;;8.70;;
19495;SDS011;9888;48.606;9.630;2022-12-07T04:54:10;21.57;;;8.77;;
19495;SDS011;9888;48.606;9.630;2022-12-07T04:56:39;20.63;;;8.33;;
19495;SDS011;9888;48.606;9.630;2022-12-07T04:59:09;17.10;;;7.70;;
19495;SDS011;9888;48.606;9.630;2022-12-07T05:01:37;18.50;;;8.20;;
19495;SDS011;9888;48.606;9.630;2022-12-07T05:04:04;19.60;;;8.03;;
19495;SDS011;9888;48.606;9.630;2022-12-07T05:06:32;16.60;;;7.30;;
19495;SDS011;9888;48.606;9.630;2022-12-07T05:09:02;20.73;;;8.03;;
19495;SDS011;9888;48.606;9.630;2022-12-07T05:11:30;18.40;;;7.07;;
19495;SDS011;9888;48.606;9.630;2022-12-07T05:14:06;17.53;;;7.77;;
19495;SDS011;9888;48.606;9.630;2022-12-07T05:16:41;16.70;;;7.00;;
19495;SDS011;9888;48.606;9.630;2022-12-07T05:19:09;15.63;;;7.93;;
19495;SDS011;9888;48.606;9.630;2022-12-07T05:21:37;17.50;;;7.20;;
19495;SDS011;9888;48.606;9.630;2022-12-07T05:24:04;20.43;;;8.27;;
19495;SDS011;9888;48.606;9.630;2022-12-07T05:26:32;22.17;;;8.97;;
19495;SDS011;9888;48.606;9.630;2022-12-07T05:29:00;21.57;;;8.50;;
19495;SDS011;9888;48.606;9.630;2022-12-07T05:31:29;17.03;;;7.90;;
19495;SDS011;9888;48.606;9.630;2022-12-07T05:33:57;15.93;;;7.90;;
19495;SDS011;9888;48.606;9.630;2022-12-07T05:36:24;17.40;;;7.57;;
19495;SDS011;9888;48.606;9.630;2022-12-07T05:38:54;18.37;;;7.97;;
19495;SDS011;9888;48.606;9.630;2022-12-07T05:41:23;17.70;;;7.80;;
19495;SDS011;9888;48.606;9.630;2022-12-07T05:44:08;19.03;;;7.07;;
19495;SDS011;9888;48.606;9.630;2022-12-07T05:46:35;17.97;;;9.00;;
19495;SDS011;9888;48.606;9.630;2022-12-07T05:49:03;17.73;;;7.40;;
19495;SDS011;9888;48.606;9.630;2022-12-07T05:51:30;16.43;;;7.47;;
19495;SDS011;9888;48.606;9.630;2022-12-07T05:53:57;17.40;;;7.60;;
19495;SDS011;9888;48.606;9.630;2022-12-07T05:56:24;20.07;;;7.70;;
19495;SDS011;9888;48.606;9.630;2022-12-07T05:58:53;22.97;;;9.47;;
19495;SDS011;9888;48.606;9.630;2022-12-07T06:01:38;25.47;;;11.27;;
19495;SDS011;9888;48.606;9.630;2022-12-07T06:04:06;21.67;;;9.30;;
19495;SDS011;9888;48.606;9.630;2022-12-07T06:06:36;18.53;;;8.20;;
19495;SDS011;9888;48.606;9.630;2022-12-07T06:09:03;19.70;;;9.07;;
19495;SDS011;9888;48.606;9.630;2022-12-07T22:13:22;12.20;;;5.20;;
19495;SDS011;9888;48.606;9.630;2022-12-07T22:16:09;13.13;;;5.43;;
19495;SDS011;9888;48.606;9.630;2022-12-07T22:18:36;13.97;;;5.00;;
19495;SDS011;9888;48.606;9.630;2022-12-07T22:21:12;14.70;;;5.20;;
19495;SDS011;9888;48.606;9.630;2022-12-07T22:23:43;12.93;;;5.30;;
19495;SDS011;9888;48.606;9.630;2022-12-07T22:26:13;12.03;;;4.53;;
19495;SDS011;9888;48.606;9.630;2022-12-07T22:28:42;11.47;;;5.10;;
19495;SDS011;9888;48.606;9.630;2022-12-07T22:31:11;12.97;;;5.27;;
19495;SDS011;9888;48.606;9.630;2022-12-07T22:33:43;13.27;;;5.23;;
19495;SDS011;9888;48.606;9.630;2022-12-07T22:36:11;11.00;;;4.90;;
19495;SDS011;9888;48.606;9.630;2022-12-07T22:38:39;12.90;;;5.30;;
19495;SDS011;9888;48.606;9.630;2022-12-07T22:41:08;13.10;;;5.03;;
19495;SDS011;9888;48.606;9.630;2022-12-07T22:43:36;12.87;;;5.40;;
19495;SDS011;9888;48.606;9.630;2022-12-07T22:46:04;15.00;;;5.97;;
19495;SDS011;9888;48.606;9.630;2022-12-07T22:48:33;12.47;;;5.40;;
19495;SDS011;9888;48.606;9.630;2022-12-07T22:51:01;13.50;;;4.97;;
19495;SDS011;9888;48.606;9.630;2022-12-07T22:53:28;11.37;;;5.37;;
19495;SDS011;9888;48.606;9.630;2022-12-07T22:55:55;13.07;;;4.93;;
19495;SDS011;9888;48.606;9.630;2022-12-07T22:58:23;13.70;;;4.70;;
19495;SDS011;9888;48.606;9.630;2022-12-07T23:00:55;12.23;;;4.80;;
19495;SDS011;9888;48.606;9.630;2022-12-07T23:03:23;14.93;;;5.30;;
19495;SDS011;9888;48.606;9.630;2022-12-07T23:05:50;15.70;;;5.23;;
19495;SDS011;9888;48.606;9.630;2022-12-07T23:08:20;12.40;;;5.30;;
19495;SDS011;9888;48.606;9.630;2022-12-07T23:10:47;11.90;;;5.50;;
19495;SDS011;9888;48.606;9.630;2022-12-07T23:13:15;12.10;;;4.83;;
19495;SDS011;9888;48.606;9.630;2022-12-07T23:16:11;12.63;;;5.63;;
19495;SDS011;9888;48.606;9.630;2022-12-07T23:18:40;13.57;;;4.97;;
19495;SDS011;9888;48.606;9.630;2022-12-07T23:21:08;10.90;;;5.33;;
19495;SDS011;9888;48.606;9.630;2022-12-07T23:23:35;15.70;;;5.77;;
19495;SDS011;9888;48.606;9.630;2022-12-07T23:26:03;13.03;;;5.47;;
19495;SDS011;9888;48.606;9.630;2022-12-07T23:28:32;11.93;;;5.30;;
19495;SDS011;9888;48.606;9.630;2022-12-07T23:31:01;12.30;;;5.33;;
19495;SDS011;9888;48.606;9.630;2022-12-07T23:33:33;14.00;;;5.60;;
19495;SDS011;9888;48.606;9.630;2022-12-07T23:36:10;14.87;;;6.07;;
19495;SDS011;9888;48.606;9.630;2022-12-07T23:38:41;14.03;;;6.20;;
19495;SDS011;9888;48.606;9.630;2022-12-07T23:41:11;14.27;;;5.70;;
19495;SDS011;9888;48.606;9.630;2022-12-07T23:43:40;14.60;;;5.77;;
19495;SDS011;9888;48.606;9.630;2022-12-07T23:46:09;15.50;;;5.50;;
19495;SDS011;9888;48.606;9.630;2022-12-07T23:54:29;12.47;;;5.47;;
19495;SDS011;9888;48.606;9.630;2022-12-07T23:57:07;13.63;;;5.70;;
19495;SDS011;9888;48.606;9.630;2022-12-07T23:59:40;11.93;;;4.93;;
